createdAt,value
2022-11-22T00:01:20.756Z,8.30
2022-11-22T00:03:50.988Z,8.30
2022-11-22T00:06:19.178Z,8.30
2022-11-22T00:08:47.378Z,8.30
2022-11-22T00:11:15.583Z,8.30
2022-11-22T00:13:43.840Z,8.30
2022-11-22T00:16:12.691Z,8.30
2022-11-22T00:18:40.892Z,8.30
2022-11-22T00:21:11.003Z,8.30
2022-11-22T00:23:39.216Z,8.30
2022-11-22T00:26:11.970Z,8.30
2022-11-22T00:28:40.754Z,8.30
2022-11-22T00:31:08.967Z,8.30
2022-11-22T00:33:37.210Z,8.30
2022-11-22T00:36:05.836Z,8.30
2022-11-22T00:38:35.431Z,8.30
2022-11-22T00:41:03.649Z,8.30
2022-11-22T00:43:31.867Z,8.30
2022-11-22T00:46:01.074Z,8.30
2022-11-22T00:48:29.491Z,8.30
2022-11-22T00:50:57.717Z,8.30
2022-11-22T00:53:25.983Z,8.30
2022-11-22T00:55:55.811Z,8.20
2022-11-22T00:58:23.977Z,8.20
2022-11-22T01:00:56.612Z,8.20
2022-11-22T01:03:25.294Z,8.20
2022-11-22T01:05:53.570Z,8.20
2022-11-22T01:08:21.907Z,8.20
2022-11-22T01:10:50.119Z,8.20
2022-11-22T01:13:19.764Z,8.20
2022-11-22T01:15:47.989Z,8.20
2022-11-22T01:18:16.281Z,8.20
2022-11-22T01:20:44.730Z,8.20
2022-11-22T01:23:13.037Z,8.20
2022-11-22T01:25:44.837Z,8.20
2022-11-22T01:28:13.365Z,8.20
2022-11-22T01:30:44.213Z,8.20
2022-11-22T01:33:13.076Z,8.20
2022-11-22T01:35:41.276Z,8.10
2022-11-22T01:38:09.577Z,8.20
2022-11-22T01:40:37.801Z,8.20
2022-11-22T01:43:20.156Z,8.20
2022-11-22T01:45:54.367Z,8.20
2022-11-22T01:48:46.817Z,8.20
2022-11-22T01:51:21.163Z,8.20
2022-11-22T01:53:49.834Z,8.20
2022-11-22T01:56:22.143Z,8.20
2022-11-22T01:58:56.648Z,8.30
2022-11-22T02:01:26.368Z,8.30
2022-11-22T02:03:57.527Z,8.30
2022-11-22T02:06:33.788Z,8.30
2022-11-22T02:09:08.689Z,8.30
2022-11-22T02:11:39.869Z,8.30
2022-11-22T02:14:10.265Z,8.30
2022-11-22T02:16:41.526Z,8.30
2022-11-22T02:19:16.512Z,8.40
2022-11-22T02:21:48.724Z,8.30
2022-11-22T02:24:24.056Z,8.40
2022-11-22T02:26:53.736Z,8.40
2022-11-22T02:29:22.747Z,8.40
2022-11-22T02:31:50.953Z,8.40
2022-11-22T02:34:19.202Z,8.40
2022-11-22T02:36:51.394Z,8.40
2022-11-22T02:39:25.344Z,8.40
2022-11-22T02:41:56.193Z,8.40
2022-11-22T02:44:25.748Z,8.40
2022-11-22T02:46:55.467Z,8.40
2022-11-22T02:49:25.432Z,8.40
2022-11-22T02:51:54.393Z,8.50
2022-11-22T02:54:22.823Z,8.50
2022-11-22T02:56:51.460Z,8.40
2022-11-22T02:59:21.127Z,8.40
2022-11-22T03:01:50.067Z,8.40
2022-11-22T03:04:25.630Z,8.40
2022-11-22T03:06:55.513Z,8.50
2022-11-22T03:09:24.133Z,8.40
2022-11-22T03:11:52.973Z,8.50
2022-11-22T03:14:22.628Z,8.50
2022-11-22T03:16:51.080Z,8.50
2022-11-22T03:19:19.620Z,8.50
2022-11-22T03:21:48.086Z,8.40
2022-11-22T03:24:16.381Z,8.40
2022-11-22T03:26:48.236Z,8.40
2022-11-22T03:29:16.778Z,8.40
2022-11-22T03:31:46.477Z,8.40
2022-11-22T03:34:15.291Z,8.50
2022-11-22T03:36:43.607Z,8.50
2022-11-22T03:39:11.856Z,8.50
2022-11-22T03:41:40.148Z,8.50
2022-11-22T03:44:08.614Z,8.50
2022-11-22T03:46:37.107Z,8.50
2022-11-22T03:49:06.715Z,8.60
2022-11-22T03:51:34.952Z,8.60
2022-11-22T03:54:03.218Z,8.60
2022-11-22T03:56:31.513Z,8.60
2022-11-22T03:58:59.781Z,8.60
2022-11-22T04:01:28.110Z,8.70
2022-11-22T04:03:56.410Z,8.70
2022-11-22T04:06:26.021Z,8.70
2022-11-22T04:08:54.259Z,8.70
2022-11-22T04:11:22.536Z,8.70
2022-11-22T04:14:04.580Z,8.80
2022-11-22T04:16:32.805Z,8.80
2022-11-22T04:19:01.085Z,8.80
2022-11-22T04:21:35.732Z,8.80
2022-11-22T04:24:23.043Z,8.90
2022-11-22T04:26:51.471Z,8.90
2022-11-22T04:29:20.569Z,8.90
2022-11-22T04:32:06.675Z,8.90
2022-11-22T04:34:35.124Z,9.00
2022-11-22T04:37:05.776Z,9.00
2022-11-22T04:39:33.980Z,9.00
2022-11-22T04:42:19.665Z,9.00
2022-11-22T04:44:47.873Z,9.00
2022-11-22T04:47:32.545Z,8.90
2022-11-22T04:50:00.759Z,8.90
2022-11-22T04:52:47.789Z,8.90
2022-11-22T04:55:16.142Z,8.90
2022-11-22T04:57:44.343Z,8.90
2022-11-22T05:00:13.526Z,8.90
2022-11-22T05:02:41.785Z,9.00
2022-11-22T05:05:10.927Z,9.00
2022-11-22T05:07:40.663Z,9.00
2022-11-22T05:10:10.303Z,9.00
2022-11-22T05:12:38.555Z,9.00
2022-11-22T05:15:07.768Z,9.10
2022-11-22T05:17:36.240Z,9.10
2022-11-22T05:20:04.835Z,9.00
2022-11-22T05:22:50.436Z,9.10
2022-11-22T05:25:25.332Z,9.10
2022-11-22T05:27:56.758Z,9.00
2022-11-22T05:30:25.020Z,9.00
2022-11-22T05:32:53.290Z,9.00
2022-11-22T05:35:21.514Z,9.00
2022-11-22T05:37:49.748Z,8.90
2022-11-22T05:40:19.401Z,8.90
2022-11-22T05:42:47.585Z,8.90
2022-11-22T05:45:16.145Z,8.90
2022-11-22T05:47:44.443Z,8.90
2022-11-22T05:50:12.676Z,8.90
2022-11-22T05:52:40.912Z,8.90
2022-11-22T05:55:09.660Z,8.90
2022-11-22T05:57:39.558Z,8.90
2022-11-22T06:00:08.903Z,8.90
2022-11-22T06:02:37.385Z,8.90
2022-11-22T06:05:06.191Z,8.90
2022-11-22T06:07:34.426Z,9.00
2022-11-22T06:10:02.685Z,8.90
2022-11-22T06:12:30.893Z,8.90
2022-11-22T06:15:00.514Z,9.00
2022-11-22T06:17:28.779Z,9.00
2022-11-22T06:20:00.091Z,9.00
2022-11-22T06:22:32.562Z,9.00
2022-11-22T06:25:01.020Z,9.00
2022-11-22T06:27:29.245Z,9.00
2022-11-22T06:29:57.469Z,9.00
2022-11-22T06:32:27.079Z,9.00
2022-11-22T06:34:55.271Z,9.10
2022-11-22T06:37:23.703Z,9.10
2022-11-22T06:39:51.999Z,9.10
2022-11-22T06:42:20.209Z,9.10
2022-11-22T06:44:48.490Z,9.10
2022-11-22T06:47:17.586Z,9.10
2022-11-22T06:49:47.337Z,9.20
2022-11-22T06:52:15.532Z,9.20
2022-11-22T06:54:43.713Z,9.20
2022-11-22T06:57:15.014Z,9.20
2022-11-22T06:59:43.216Z,9.30
2022-11-22T07:02:13.060Z,9.30
2022-11-22T07:05:02.400Z,9.30
2022-11-22T07:07:31.129Z,9.30
2022-11-22T07:09:59.600Z,9.30
2022-11-22T07:12:27.936Z,9.30
2022-11-22T07:14:56.198Z,9.30
2022-11-22T07:17:24.401Z,9.30
2022-11-22T07:19:52.621Z,9.30
2022-11-22T07:22:20.864Z,9.30
2022-11-22T07:24:50.541Z,9.30
2022-11-22T07:27:18.798Z,9.30
2022-11-22T07:29:47.117Z,9.30
2022-11-22T07:32:15.313Z,9.30
2022-11-22T07:34:43.514Z,9.30
2022-11-22T07:37:11.777Z,9.30
2022-11-22T07:39:40.166Z,9.30
2022-11-22T07:42:09.830Z,9.30
2022-11-22T07:44:38.071Z,9.30
2022-11-22T07:47:06.334Z,9.20
2022-11-22T07:49:34.517Z,9.20
2022-11-22T07:52:02.756Z,9.20
2022-11-22T07:54:30.968Z,9.20
2022-11-22T07:56:59.214Z,9.20
2022-11-22T07:59:29.310Z,9.20
2022-11-22T08:01:57.655Z,9.20
2022-11-22T08:04:25.946Z,9.30
2022-11-22T08:06:54.190Z,9.30
2022-11-22T08:09:22.465Z,9.30
2022-11-22T08:11:50.656Z,9.40
2022-11-22T08:14:18.909Z,9.40
2022-11-22T08:16:48.561Z,9.40
2022-11-22T08:19:18.006Z,9.50
2022-11-22T08:21:46.594Z,9.50
2022-11-22T08:24:15.420Z,9.50
2022-11-22T08:26:43.935Z,9.60
2022-11-22T08:29:14.722Z,9.60
2022-11-22T08:31:43.106Z,9.60
2022-11-22T08:34:12.795Z,9.60
2022-11-22T08:36:41.024Z,9.60
2022-11-22T08:39:09.408Z,9.60
2022-11-22T08:41:37.892Z,9.60
2022-11-22T08:44:06.614Z,9.70
2022-11-22T08:46:34.833Z,9.70
2022-11-22T08:49:04.048Z,9.70
2022-11-22T08:51:36.556Z,9.70
2022-11-22T08:54:04.904Z,9.70
2022-11-22T08:56:34.331Z,9.70
2022-11-22T08:59:02.964Z,9.80
2022-11-22T09:01:31.573Z,9.80
2022-11-22T09:04:00.033Z,9.80
2022-11-22T09:12:06.716Z,9.90
2022-11-22T09:14:35.020Z,9.90
2022-11-22T09:17:03.552Z,9.90
2022-11-22T09:19:31.980Z,10.00
2022-11-22T09:22:00.677Z,10.00
2022-11-22T09:24:30.291Z,10.00
2022-11-22T09:26:58.620Z,10.00
2022-11-22T09:29:26.909Z,10.00
2022-11-22T09:31:56.115Z,10.00
2022-11-22T09:34:24.414Z,10.10
2022-11-22T09:36:52.871Z,10.10
2022-11-22T09:39:22.270Z,10.10
2022-11-22T09:42:17.813Z,10.20
2022-11-22T09:45:07.044Z,10.30
2022-11-22T09:47:43.077Z,10.40
2022-11-22T09:50:19.987Z,10.60
2022-11-22T09:52:55.592Z,10.80
2022-11-22T09:55:28.218Z,11.00
2022-11-22T09:58:07.514Z,11.30
2022-11-22T10:00:36.642Z,11.40
2022-11-22T10:03:09.807Z,11.60
2022-11-22T10:05:51.956Z,11.80
2022-11-22T10:08:33.344Z,11.90
2022-11-22T10:11:02.704Z,12.10
2022-11-22T10:13:37.181Z,12.30
2022-11-22T10:16:10.728Z,12.50
2022-11-22T10:18:44.858Z,12.80
2022-11-22T10:21:15.012Z,13.00
2022-11-22T10:23:44.543Z,13.20
2022-11-22T10:26:23.521Z,13.40
2022-11-22T10:29:04.944Z,13.40
2022-11-22T10:31:40.069Z,13.40
2022-11-22T10:34:17.980Z,13.30
2022-11-22T10:36:52.453Z,13.20
2022-11-22T10:39:40.736Z,13.10
2022-11-22T10:42:21.904Z,13.00
2022-11-22T10:45:00.980Z,12.90
2022-11-22T10:47:52.598Z,12.70
2022-11-22T10:50:25.067Z,12.60
2022-11-22T10:53:01.725Z,12.50
2022-11-22T10:55:53.126Z,12.40
2022-11-22T10:58:30.944Z,12.20
2022-11-22T11:01:07.746Z,12.10
2022-11-22T11:03:39.716Z,12.00
2022-11-22T11:06:24.583Z,11.90
2022-11-22T11:10:02.991Z,11.80
2022-11-22T11:11:54.884Z,11.70
2022-11-22T11:14:30.898Z,11.70
2022-11-22T11:17:02.147Z,11.70
2022-11-22T11:19:33.337Z,11.60
2022-11-22T11:22:14.114Z,11.60
2022-11-22T11:24:42.641Z,11.60
2022-11-22T11:27:13.270Z,11.60
2022-11-22T11:29:45.964Z,11.50
2022-11-22T11:32:17.431Z,11.40
2022-11-22T11:34:54.190Z,11.30
2022-11-22T11:37:34.160Z,11.30
2022-11-22T11:40:02.461Z,11.20
2022-11-22T11:42:32.498Z,11.20
2022-11-22T11:45:29.030Z,11.10
2022-11-22T11:47:58.683Z,11.10
2022-11-22T11:50:29.961Z,11.10
2022-11-22T11:53:05.316Z,11.10
2022-11-22T11:55:36.541Z,11.00
2022-11-22T11:58:16.320Z,11.00
2022-11-22T12:00:46.469Z,11.00
2022-11-22T12:03:20.076Z,11.00
2022-11-22T12:05:48.322Z,11.10
2022-11-22T12:08:30.854Z,11.20
2022-11-22T12:11:04.077Z,11.30
2022-11-22T12:13:57.738Z,11.50
2022-11-22T12:16:30.977Z,11.60
2022-11-22T12:19:07.373Z,11.70
2022-11-22T12:21:46.028Z,11.80
2022-11-22T12:27:06.639Z,11.80
2022-11-22T12:29:38.442Z,11.80
2022-11-22T12:32:12.946Z,11.70
2022-11-22T12:34:52.153Z,11.70
2022-11-22T12:37:25.450Z,11.50
2022-11-22T12:39:55.539Z,11.50
2022-11-22T12:42:30.023Z,11.50
2022-11-22T12:45:05.752Z,11.40
2022-11-22T12:47:40.490Z,11.30
2022-11-22T12:50:18.797Z,11.30
2022-11-22T12:52:52.183Z,11.30
2022-11-22T12:55:24.916Z,11.30
2022-11-22T12:57:58.003Z,11.30
2022-11-22T13:00:30.196Z,11.30
2022-11-22T13:03:03.366Z,11.50
2022-11-22T13:05:38.183Z,11.60
2022-11-22T13:08:15.671Z,11.70
2022-11-22T13:10:46.913Z,11.80
2022-11-22T13:13:24.873Z,11.80
2022-11-22T13:15:55.681Z,11.80
2022-11-22T13:18:28.260Z,11.80
2022-11-22T13:21:09.799Z,11.80
2022-11-22T13:24:06.427Z,11.70
2022-11-22T13:26:43.672Z,11.60
2022-11-22T13:29:21.245Z,11.60
2022-11-22T13:32:04.746Z,11.50
2022-11-22T13:34:33.509Z,11.50
2022-11-22T13:37:11.601Z,11.50
2022-11-22T13:39:44.350Z,11.50
2022-11-22T13:42:18.503Z,11.50
2022-11-22T13:45:08.571Z,11.40
2022-11-22T13:47:39.621Z,11.40
2022-11-22T13:50:56.685Z,11.40
2022-11-22T13:53:31.593Z,11.40
2022-11-22T13:56:32.189Z,11.40
2022-11-22T13:59:06.697Z,11.40
2022-11-22T14:01:57.201Z,11.40
2022-11-22T14:04:38.758Z,11.40
2022-11-22T14:07:23.624Z,11.40
2022-11-22T14:10:01.130Z,11.40
2022-11-22T14:12:50.356Z,11.40
2022-11-22T14:15:42.693Z,11.40
2022-11-22T14:18:30.127Z,11.40
2022-11-22T14:21:05.268Z,11.40
2022-11-22T14:23:45.516Z,11.40
2022-11-22T14:26:26.666Z,11.40
2022-11-22T14:29:18.744Z,11.40
2022-11-22T14:31:56.411Z,11.30
2022-11-22T14:34:27.155Z,11.30
2022-11-22T14:37:32.882Z,11.30
2022-11-22T14:40:14.741Z,11.30
2022-11-22T14:42:59.725Z,11.30
2022-11-22T14:45:38.950Z,11.30
2022-11-22T14:48:15.815Z,11.30
2022-11-22T14:50:48.308Z,11.30
2022-11-22T14:53:31.295Z,11.20
2022-11-22T14:56:06.454Z,11.20
2022-11-22T14:58:39.718Z,11.20
2022-11-22T15:01:37.808Z,11.20
2022-11-22T15:09:13.961Z,11.10
2022-11-22T15:09:15.783Z,11.20
2022-11-22T15:11:15.555Z,11.10
2022-11-22T15:14:21.275Z,11.00
2022-11-22T15:57:29.359Z,10.60
2022-11-22T15:59:58.332Z,10.60
2022-11-22T16:02:29.890Z,10.60
2022-11-22T16:06:08.215Z,10.50
2022-11-22T16:07:51.663Z,10.50
2022-11-22T16:10:22.757Z,10.60
2022-11-22T16:12:51.754Z,10.50
2022-11-22T16:15:30.588Z,10.50
2022-11-22T16:18:09.196Z,10.50
2022-11-22T16:20:40.655Z,10.50
2022-11-22T16:23:19.959Z,10.50
2022-11-22T16:25:50.831Z,10.50
2022-11-22T16:28:39.804Z,10.50
2022-11-22T16:31:17.708Z,10.50
2022-11-22T16:33:46.283Z,10.50
2022-11-22T16:36:17.164Z,10.50
2022-11-22T16:38:45.893Z,10.50
2022-11-22T16:41:20.074Z,10.40
2022-11-22T16:43:51.066Z,10.40
2022-11-22T16:46:19.859Z,10.40
2022-11-22T16:48:48.526Z,10.40
2022-11-22T16:51:23.193Z,10.40
2022-11-22T16:53:53.213Z,10.40
2022-11-22T16:56:23.473Z,10.40
2022-11-22T16:58:53.447Z,10.40
2022-11-22T17:01:24.093Z,10.40
2022-11-22T17:03:54.851Z,10.40
2022-11-22T17:06:26.014Z,10.30
2022-11-22T17:08:55.917Z,10.40
2022-11-22T17:11:25.764Z,10.40
2022-11-22T17:13:54.849Z,10.40
2022-11-22T17:16:23.276Z,10.40
2022-11-22T17:18:53.006Z,10.40
2022-11-22T17:21:30.227Z,10.40
2022-11-22T17:24:02.504Z,10.40
2022-11-22T17:26:32.585Z,10.40
2022-11-22T17:29:00.838Z,10.40
2022-11-22T17:31:29.763Z,10.40
2022-11-22T17:33:59.720Z,10.30
2022-11-22T17:36:31.838Z,10.40
2022-11-22T17:39:01.774Z,10.40
2022-11-22T17:41:30.459Z,10.40
2022-11-22T17:43:59.082Z,10.40
2022-11-22T17:46:27.950Z,10.40
2022-11-22T17:48:57.913Z,10.30
2022-11-22T17:51:26.706Z,10.40
2022-11-22T17:53:58.266Z,10.40
2022-11-22T17:56:27.161Z,10.40
2022-11-22T17:58:55.395Z,10.40
2022-11-22T18:01:24.325Z,10.40
2022-11-22T18:03:52.917Z,10.30
2022-11-22T18:06:22.681Z,10.30
2022-11-22T18:08:50.977Z,10.30
2022-11-22T18:11:20.578Z,10.30
2022-11-22T18:13:49.011Z,10.20
2022-11-22T18:16:18.493Z,10.20
2022-11-22T18:19:02.604Z,10.20
2022-11-22T18:21:32.466Z,10.10
2022-11-22T18:24:01.903Z,10.10
2022-11-22T18:26:40.319Z,10.10
2022-11-22T18:31:58.037Z,10.10
2022-11-22T18:34:26.588Z,10.10
2022-11-22T18:37:00.308Z,10.10
2022-11-22T18:39:30.876Z,10.10
2022-11-22T18:42:00.820Z,10.10
2022-11-22T18:44:29.027Z,10.10
2022-11-22T18:46:57.305Z,10.10
2022-11-22T18:49:25.650Z,10.10
2022-11-22T18:51:53.907Z,10.10
2022-11-22T18:54:22.910Z,10.10
2022-11-22T18:56:51.508Z,10.10
2022-11-22T18:59:21.348Z,10.20
2022-11-22T19:01:49.802Z,10.20
2022-11-22T19:04:18.143Z,10.20
2022-11-22T19:06:46.384Z,10.20
2022-11-22T19:09:14.783Z,10.20
2022-11-22T19:11:42.993Z,10.20
2022-11-22T19:14:11.420Z,10.20
2022-11-22T19:16:41.067Z,10.20
2022-11-22T19:19:11.874Z,10.20
2022-11-22T19:21:40.290Z,10.20
2022-11-22T19:24:08.679Z,10.20
2022-11-22T19:26:37.140Z,10.20
2022-11-22T19:29:05.414Z,10.20
2022-11-22T19:31:33.827Z,10.20
2022-11-22T19:34:03.516Z,10.20
2022-11-22T19:36:34.424Z,10.20
2022-11-22T19:39:03.771Z,10.20
2022-11-22T19:41:32.304Z,10.20
2022-11-22T19:44:00.969Z,10.20
2022-11-22T19:46:30.054Z,10.20
2022-11-22T19:48:59.747Z,10.20
2022-11-22T19:51:30.902Z,10.20
2022-11-22T19:54:02.236Z,10.20
2022-11-22T19:56:32.584Z,10.20
2022-11-22T19:59:02.906Z,10.20
2022-11-22T20:01:33.128Z,10.20
2022-11-22T20:04:03.427Z,10.20
2022-11-22T20:06:33.854Z,10.20
2022-11-22T20:09:03.492Z,10.20
2022-11-22T20:11:31.743Z,10.20
2022-11-22T20:13:59.990Z,10.30
2022-11-22T20:16:30.100Z,10.30
2022-11-22T20:18:59.920Z,10.30
2022-11-22T20:21:30.787Z,10.30
2022-11-22T20:24:01.484Z,10.30
2022-11-22T20:26:31.335Z,10.30
2022-11-22T20:29:01.408Z,10.30
2022-11-22T20:31:31.939Z,10.30
2022-11-22T20:34:01.585Z,10.20
2022-11-22T20:36:31.651Z,10.20
2022-11-22T20:39:06.797Z,10.20
2022-11-22T20:41:38.472Z,10.20
2022-11-22T20:44:07.073Z,10.30
2022-11-22T20:46:38.281Z,10.20
2022-11-22T20:49:06.778Z,10.30
2022-11-22T20:51:38.711Z,10.30
2022-11-22T20:54:09.132Z,10.30
2022-11-22T20:56:38.003Z,10.30
2022-11-22T20:59:07.357Z,10.30
2022-11-22T21:01:35.744Z,10.30
2022-11-22T21:04:04.249Z,10.30
2022-11-22T21:06:34.966Z,10.30
2022-11-22T21:09:03.286Z,10.30
2022-11-22T21:11:32.989Z,10.30
2022-11-22T21:14:01.213Z,10.30
2022-11-22T21:16:30.629Z,10.30
2022-11-22T21:19:02.406Z,10.30
2022-11-22T21:21:31.984Z,10.20
2022-11-22T21:24:01.866Z,10.20
2022-11-22T21:26:31.049Z,10.20
2022-11-22T21:29:03.532Z,10.20
2022-11-22T21:31:32.480Z,10.20
2022-11-22T21:34:00.719Z,10.20
2022-11-22T21:36:28.967Z,10.20
2022-11-22T21:38:57.201Z,10.10
2022-11-22T21:41:39.863Z,10.10
2022-11-22T21:44:10.640Z,10.10
2022-11-22T21:46:39.314Z,10.10
2022-11-22T21:49:08.013Z,10.00
2022-11-22T21:51:36.290Z,10.00
2022-11-22T21:54:05.364Z,10.00
2022-11-22T21:56:33.899Z,10.00
2022-11-22T21:59:02.211Z,9.90
2022-11-22T22:01:32.167Z,9.90
2022-11-22T22:04:00.462Z,9.90
2022-11-22T22:06:28.733Z,9.80
2022-11-22T22:08:57.087Z,9.80
2022-11-22T22:11:25.546Z,9.80
2022-11-22T22:13:54.249Z,9.80
2022-11-22T22:16:25.843Z,9.80
2022-11-22T22:18:55.508Z,9.70
2022-11-22T22:21:23.875Z,9.70
2022-11-22T22:23:53.493Z,9.70
2022-11-22T22:26:21.808Z,9.70
2022-11-22T22:28:50.026Z,9.70
2022-11-22T22:31:21.946Z,9.70
2022-11-22T22:33:51.635Z,9.70
2022-11-22T22:36:21.947Z,9.70
2022-11-22T22:38:50.744Z,9.60
2022-11-22T22:41:19.267Z,9.70
2022-11-22T22:43:49.436Z,9.60
2022-11-22T22:46:19.980Z,9.60
2022-11-22T22:48:48.870Z,9.60
2022-11-22T22:51:18.678Z,9.60
2022-11-22T22:53:48.607Z,9.60
2022-11-22T22:56:18.431Z,9.60
2022-11-22T22:58:46.945Z,9.70
2022-11-22T23:01:17.695Z,9.70
2022-11-22T23:03:49.345Z,9.70
2022-11-22T23:06:18.681Z,9.70
2022-11-22T23:08:50.417Z,9.70
2022-11-22T23:11:20.104Z,9.70
2022-11-22T23:13:48.288Z,9.70
2022-11-22T23:16:16.950Z,9.70
2022-11-22T23:18:45.997Z,9.70
2022-11-22T23:21:15.844Z,9.70
2022-11-22T23:23:44.269Z,9.70
2022-11-22T23:26:14.720Z,9.80
2022-11-22T23:28:42.971Z,9.80
2022-11-22T23:31:12.760Z,9.80
2022-11-22T23:33:41.522Z,9.80
2022-11-22T23:36:11.546Z,9.80
2022-11-22T23:38:40.087Z,9.80
2022-11-22T23:41:09.642Z,9.80
2022-11-22T23:43:39.466Z,9.80
2022-11-22T23:46:09.258Z,9.80
2022-11-22T23:48:37.449Z,9.80
2022-11-22T23:51:06.215Z,9.80
2022-11-22T23:53:34.719Z,9.80
2022-11-22T23:56:07.194Z,9.80
2022-11-22T23:58:35.469Z,9.80
